createdAt,value
2023-05-25T00:01:09.218Z,99.90
2023-05-25T00:03:36.486Z,99.90
2023-05-25T00:06:04.128Z,99.90
2023-05-25T00:08:31.485Z,99.90
2023-05-25T00:10:58.905Z,99.90
2023-05-25T00:13:26.196Z,99.90
2023-05-25T00:15:53.320Z,99.90
2023-05-25T00:18:20.458Z,99.90
2023-05-25T00:20:47.894Z,99.90
2023-05-25T00:23:15.223Z,99.90
2023-05-25T00:25:42.746Z,99.90
2023-05-25T00:28:11.605Z,99.90
2023-05-25T00:30:39.052Z,99.90
2023-05-25T00:33:06.590Z,99.90
2023-05-25T00:35:33.814Z,99.90
2023-05-25T00:38:01.084Z,99.90
2023-05-25T00:40:28.204Z,99.90
2023-05-25T00:42:56.267Z,99.90
2023-05-25T00:45:23.349Z,99.90
2023-05-25T00:47:54.541Z,99.90
2023-05-25T00:50:40.834Z,99.90
2023-05-25T00:53:09.157Z,99.90
2023-05-25T00:55:54.812Z,99.90
2023-05-25T00:58:24.900Z,99.90
2023-05-25T01:00:56.352Z,99.90
2023-05-25T01:03:27.985Z,99.90
2023-05-25T01:05:57.592Z,99.90
2023-05-25T01:08:27.162Z,99.90
2023-05-25T01:10:55.139Z,99.90
2023-05-25T01:13:22.644Z,99.90
2023-05-25T01:15:51.399Z,99.90
2023-05-25T01:18:18.488Z,99.90
2023-05-25T01:21:14.230Z,99.90
2023-05-25T01:23:47.561Z,99.90
2023-05-25T01:26:17.721Z,99.90
2023-05-25T01:28:50.587Z,99.90
2023-05-25T01:31:21.979Z,99.90
2023-05-25T01:33:51.886Z,99.90
2023-05-25T01:36:20.065Z,99.90
2023-05-25T01:38:47.560Z,99.90
2023-05-25T01:41:15.136Z,99.90
2023-05-25T01:43:42.746Z,99.90
2023-05-25T01:46:36.011Z,99.90
2023-05-25T01:49:34.974Z,99.90
2023-05-25T01:52:14.167Z,99.90
2023-05-25T01:54:48.148Z,99.90
2023-05-25T01:57:17.318Z,99.90
2023-05-25T01:59:46.650Z,99.90
2023-05-25T02:02:18.956Z,99.90
2023-05-25T02:04:47.538Z,99.90
2023-05-25T02:07:14.745Z,99.90
2023-05-25T02:09:41.899Z,99.90
2023-05-25T02:12:09.222Z,99.90
2023-05-25T02:14:36.521Z,99.90
2023-05-25T02:17:03.895Z,99.90
2023-05-25T02:19:31.197Z,99.90
2023-05-25T02:21:58.349Z,99.90
2023-05-25T02:24:25.886Z,99.90
2023-05-25T02:26:53.000Z,99.90
2023-05-25T02:29:20.113Z,99.90
2023-05-25T02:31:47.796Z,99.90
2023-05-25T02:34:15.607Z,99.90
2023-05-25T02:36:43.931Z,99.90
2023-05-25T02:39:11.805Z,99.90
2023-05-25T02:41:39.503Z,99.90
2023-05-25T02:44:07.091Z,99.90
2023-05-25T02:46:34.937Z,99.90
2023-05-25T02:49:02.288Z,99.90
2023-05-25T02:51:29.732Z,99.90
2023-05-25T02:53:56.859Z,99.90
2023-05-25T02:56:23.987Z,99.90
2023-05-25T02:58:51.479Z,99.90
2023-05-25T03:01:19.315Z,99.90
2023-05-25T03:03:52.880Z,99.90
2023-05-25T03:06:21.707Z,99.90
2023-05-25T03:08:49.335Z,99.90
2023-05-25T03:11:16.494Z,99.90
2023-05-25T03:13:43.606Z,99.90
2023-05-25T03:16:11.152Z,99.90
2023-05-25T03:18:38.195Z,99.90
2023-05-25T03:21:05.406Z,99.90
2023-05-25T03:23:32.451Z,99.90
2023-05-25T03:26:00.686Z,99.90
2023-05-25T03:28:27.788Z,99.90
2023-05-25T03:30:54.842Z,99.90
2023-05-25T03:33:21.936Z,99.90
2023-05-25T03:35:49.031Z,99.90
2023-05-25T03:38:16.481Z,99.90
2023-05-25T03:40:43.584Z,99.90
2023-05-25T03:43:10.737Z,99.90
2023-05-25T03:45:37.824Z,99.90
2023-05-25T03:48:05.353Z,99.90
2023-05-25T03:50:32.462Z,99.90
2023-05-25T03:52:59.539Z,99.90
2023-05-25T03:55:26.616Z,99.90
2023-05-25T03:57:53.685Z,99.90
2023-05-25T04:00:20.958Z,99.90
2023-05-25T04:02:48.158Z,99.90
2023-05-25T04:05:15.314Z,99.90
2023-05-25T04:07:42.360Z,99.90
2023-05-25T04:10:09.789Z,99.90
2023-05-25T04:12:37.170Z,99.90
2023-05-25T04:15:05.725Z,99.90
2023-05-25T04:17:39.201Z,99.90
2023-05-25T04:20:11.214Z,99.90
2023-05-25T04:22:39.158Z,99.90
2023-05-25T04:25:10.564Z,99.90
2023-05-25T04:27:37.905Z,99.90
2023-05-25T04:30:05.822Z,99.90
2023-05-25T04:32:33.005Z,99.90
2023-05-25T04:35:00.182Z,99.90
2023-05-25T04:37:27.737Z,99.90
2023-05-25T04:39:54.920Z,99.90
2023-05-25T04:42:24.405Z,99.90
2023-05-25T04:44:56.004Z,99.90
2023-05-25T04:47:25.208Z,99.90
2023-05-25T04:49:53.212Z,99.90
2023-05-25T04:52:20.340Z,99.90
2023-05-25T04:54:47.720Z,99.90
2023-05-25T04:57:14.823Z,99.90
2023-05-25T04:59:41.924Z,99.90
2023-05-25T05:02:08.998Z,99.90
2023-05-25T05:04:37.409Z,99.90
2023-05-25T05:07:04.770Z,99.90
2023-05-25T05:09:31.836Z,99.90
2023-05-25T05:11:58.928Z,99.90
2023-05-25T05:14:25.995Z,99.90
2023-05-25T05:16:53.081Z,99.90
2023-05-25T05:19:20.878Z,99.90
2023-05-25T05:21:48.060Z,99.90
2023-05-25T05:24:15.197Z,99.90
2023-05-25T05:26:56.699Z,99.90
2023-05-25T05:29:25.373Z,99.90
2023-05-25T05:31:52.732Z,99.90
2023-05-25T05:34:19.906Z,99.90
2023-05-25T05:36:57.499Z,99.90
2023-05-25T05:39:26.741Z,99.90
2023-05-25T05:41:54.672Z,99.90
2023-05-25T05:44:25.273Z,99.90
2023-05-25T05:47:01.178Z,99.90
2023-05-25T05:49:29.596Z,99.90
2023-05-25T05:51:56.871Z,99.90
2023-05-25T05:54:24.172Z,99.90
2023-05-25T05:56:51.824Z,99.90
2023-05-25T05:59:19.026Z,99.90
2023-05-25T06:01:46.179Z,99.90
2023-05-25T06:04:13.434Z,99.90
2023-05-25T06:06:42.294Z,99.90
2023-05-25T06:09:09.779Z,99.90
2023-05-25T06:11:37.706Z,99.90
2023-05-25T06:14:05.024Z,99.90
2023-05-25T06:16:32.178Z,99.90
2023-05-25T06:18:59.316Z,99.90
2023-05-25T06:21:26.404Z,99.90
2023-05-25T06:23:53.582Z,99.90
2023-05-25T06:26:20.621Z,99.90
2023-05-25T06:28:49.182Z,99.90
2023-05-25T06:31:16.501Z,99.90
2023-05-25T06:33:43.611Z,99.90
2023-05-25T06:36:11.276Z,99.90
2023-05-25T06:38:38.404Z,99.90
2023-05-25T06:41:06.099Z,99.90
2023-05-25T06:43:33.291Z,99.90
2023-05-25T06:46:00.343Z,99.90
2023-05-25T06:48:27.478Z,99.90
2023-05-25T06:50:54.598Z,99.90
2023-05-25T06:53:21.740Z,99.90
2023-05-25T06:55:49.561Z,99.90
2023-05-25T06:58:16.845Z,99.90
2023-05-25T07:00:44.821Z,99.90
2023-05-25T07:03:13.828Z,99.90
2023-05-25T07:05:41.638Z,99.90
2023-05-25T07:08:08.796Z,99.90
2023-05-25T07:10:35.908Z,99.90
2023-05-25T07:13:03.030Z,99.90
2023-05-25T07:15:30.172Z,99.90
2023-05-25T07:18:00.221Z,99.90
2023-05-25T07:20:27.697Z,99.90
2023-05-25T07:22:54.766Z,99.90
2023-05-25T07:25:21.868Z,99.90
2023-05-25T07:27:55.238Z,99.90
2023-05-25T07:30:22.446Z,99.90
2023-05-25T07:32:49.662Z,99.90
2023-05-25T07:35:16.830Z,99.90
2023-05-25T07:37:43.965Z,99.90
2023-05-25T07:40:11.537Z,99.90
2023-05-25T07:42:38.642Z,99.90
2023-05-25T07:45:06.400Z,99.90
2023-05-25T07:47:33.569Z,99.90
2023-05-25T07:50:00.658Z,99.90
2023-05-25T07:52:27.723Z,99.90
2023-05-25T07:54:54.870Z,99.90
2023-05-25T07:57:22.083Z,99.90
2023-05-25T07:59:49.181Z,99.90
2023-05-25T08:02:16.396Z,99.90
2023-05-25T08:04:43.753Z,99.90
2023-05-25T08:07:11.433Z,99.90
2023-05-25T08:09:38.651Z,99.90
2023-05-25T08:12:27.244Z,99.90
2023-05-25T08:14:54.358Z,99.90
2023-05-25T08:17:22.265Z,99.90
2023-05-25T08:19:49.463Z,99.90
2023-05-25T08:22:16.766Z,99.90
2023-05-25T08:24:43.809Z,99.90
2023-05-25T08:27:11.003Z,99.90
2023-05-25T08:29:38.078Z,99.90
2023-05-25T08:32:05.362Z,99.90
2023-05-25T08:34:32.501Z,99.90
2023-05-25T08:36:59.918Z,99.90
2023-05-25T08:39:27.096Z,99.90
2023-05-25T08:41:54.242Z,99.90
2023-05-25T08:44:22.219Z,99.90
2023-05-25T08:46:50.345Z,99.90
2023-05-25T08:49:17.887Z,99.90
2023-05-25T08:51:55.707Z,99.90
2023-05-25T08:54:30.329Z,99.90
2023-05-25T08:57:02.728Z,99.90
2023-05-25T08:59:38.296Z,99.90
2023-05-25T09:02:17.678Z,99.90
2023-05-25T09:04:45.584Z,99.90
2023-05-25T09:07:13.482Z,99.90
2023-05-25T09:09:40.821Z,99.90
2023-05-25T09:12:09.194Z,99.90
2023-05-25T09:14:37.966Z,99.90
2023-05-25T09:17:05.250Z,99.90
2023-05-25T09:19:32.648Z,99.90
2023-05-25T09:24:32.137Z,99.90
2023-05-25T09:26:59.840Z,99.90
2023-05-25T09:29:27.412Z,99.90
2023-05-25T09:31:54.553Z,99.90
2023-05-25T09:34:21.691Z,99.90
2023-05-25T09:36:48.910Z,99.90
2023-05-25T09:39:17.354Z,99.90
2023-05-25T09:41:44.653Z,99.90
2023-05-25T09:44:12.235Z,99.90
2023-05-25T09:46:44.267Z,99.90
2023-05-25T09:49:12.305Z,99.90
2023-05-25T09:51:39.487Z,99.90
2023-05-25T09:54:10.334Z,99.90
2023-05-25T09:56:37.779Z,99.90
2023-05-25T09:59:04.928Z,99.90
2023-05-25T10:01:33.879Z,99.90
2023-05-25T10:04:05.093Z,99.90
2023-05-25T10:06:33.709Z,99.90
2023-05-25T10:09:01.904Z,99.90
2023-05-25T10:11:29.853Z,99.90
2023-05-25T10:13:59.225Z,99.90
2023-05-25T10:16:29.777Z,99.90
2023-05-25T10:19:18.553Z,99.90
2023-05-25T10:21:54.885Z,99.90
2023-05-25T10:24:25.530Z,99.90
2023-05-25T10:26:58.815Z,99.90
2023-05-25T10:29:28.309Z,99.90
2023-05-25T10:31:57.212Z,99.90
2023-05-25T10:34:25.000Z,99.90
2023-05-25T10:36:53.847Z,99.90
2023-05-25T10:39:21.775Z,99.90
2023-05-25T10:41:50.332Z,99.90
2023-05-25T10:44:18.165Z,99.90
2023-05-25T10:46:46.427Z,99.90
2023-05-25T10:49:13.569Z,99.90
2023-05-25T10:51:41.735Z,99.90
2023-05-25T10:54:08.971Z,99.90
2023-05-25T10:56:36.153Z,99.90
2023-05-25T10:59:03.439Z,99.90
2023-05-25T11:01:33.829Z,99.90
2023-05-25T11:04:09.854Z,99.90
2023-05-25T11:06:44.661Z,99.90
2023-05-25T11:09:31.780Z,99.90
2023-05-25T11:12:03.855Z,99.90
2023-05-25T11:14:40.084Z,99.90
2023-05-25T11:17:12.199Z,99.90
2023-05-25T11:19:50.990Z,99.90
2023-05-25T11:22:37.888Z,99.90
2023-05-25T11:25:37.460Z,99.90
2023-05-25T11:28:10.857Z,99.90
2023-05-25T11:30:45.066Z,99.90
2023-05-25T11:33:12.646Z,99.90
2023-05-25T11:35:40.220Z,99.90
2023-05-25T11:38:08.739Z,99.90
2023-05-25T11:40:38.533Z,99.90
2023-05-25T11:43:09.774Z,99.90
2023-05-25T11:45:38.542Z,99.90
2023-05-25T11:48:06.271Z,99.90
2023-05-25T11:50:34.132Z,99.90
2023-05-25T11:53:07.242Z,99.90
2023-05-25T11:55:34.451Z,99.90
2023-05-25T11:58:02.878Z,99.90
2023-05-25T12:00:30.118Z,99.90
2023-05-25T12:02:57.954Z,99.90
2023-05-25T12:05:25.304Z,99.90
2023-05-25T12:07:52.683Z,99.90
2023-05-25T12:10:19.896Z,99.90
2023-05-25T12:12:52.456Z,99.90
2023-05-25T12:15:24.332Z,99.90
2023-05-25T12:17:52.774Z,99.90
2023-05-25T12:20:20.798Z,99.90
2023-05-25T12:22:48.668Z,99.90
2023-05-25T12:25:21.083Z,99.90
2023-05-25T12:27:48.325Z,99.90
2023-05-25T12:30:15.824Z,99.90
2023-05-25T12:33:13.401Z,99.90
2023-05-25T12:35:48.482Z,99.90
2023-05-25T12:38:20.069Z,99.90
2023-05-25T12:40:48.175Z,99.90
2023-05-25T12:43:17.148Z,99.90
2023-05-25T12:45:44.634Z,99.90
2023-05-25T12:48:12.087Z,99.90
2023-05-25T12:50:39.415Z,99.90
2023-05-25T12:53:06.559Z,99.90
2023-05-25T12:55:36.400Z,99.90
2023-05-25T12:58:07.918Z,99.90
2023-05-25T13:00:39.548Z,99.90
2023-05-25T13:03:08.094Z,99.90
2023-05-25T13:05:38.300Z,99.90
2023-05-25T13:08:07.051Z,99.90
2023-05-25T13:10:37.449Z,99.90
2023-05-25T13:13:05.046Z,99.90
2023-05-25T13:15:32.280Z,99.90
2023-05-25T13:17:59.454Z,99.90
2023-05-25T13:20:27.763Z,99.90
2023-05-25T13:22:57.738Z,99.90
2023-05-25T13:25:27.808Z,99.90
2023-05-25T13:27:58.077Z,99.90
2023-05-25T13:30:26.590Z,99.90
2023-05-25T13:32:53.855Z,99.90
2023-05-25T13:35:44.680Z,99.90
2023-05-25T13:38:12.818Z,99.90
2023-05-25T13:40:41.166Z,99.90
2023-05-25T13:43:08.651Z,99.90
2023-05-25T13:45:35.894Z,99.90
2023-05-25T13:48:03.578Z,99.90
2023-05-25T13:50:30.837Z,99.90
2023-05-25T13:52:57.973Z,99.90
2023-05-25T13:55:25.180Z,99.70
2023-05-25T13:57:52.721Z,99.90
2023-05-25T14:00:20.062Z,99.90
2023-05-25T14:02:47.299Z,99.90
2023-05-25T14:05:14.472Z,99.90
2023-05-25T14:07:41.653Z,99.20
2023-05-25T14:10:10.005Z,99.90
2023-05-25T14:12:37.386Z,99.90
2023-05-25T14:15:05.660Z,99.10
2023-05-25T14:17:33.075Z,98.10
2023-05-25T14:20:04.027Z,99.40
2023-05-25T14:22:32.052Z,99.40
2023-05-25T14:24:59.228Z,99.10
2023-05-25T14:27:26.329Z,99.40
2023-05-25T14:29:53.457Z,98.90
2023-05-25T14:32:20.585Z,99.70
2023-05-25T14:34:47.737Z,98.20
2023-05-25T14:37:14.890Z,98.10
2023-05-25T14:39:41.954Z,99.90
2023-05-25T14:42:09.718Z,98.00
2023-05-25T14:44:36.957Z,98.40
2023-05-25T14:47:04.346Z,99.20
2023-05-25T14:49:31.518Z,99.70
2023-05-25T14:51:58.617Z,99.90
2023-05-25T14:54:25.886Z,99.00
2023-05-25T14:56:53.047Z,99.10
2023-05-25T14:59:20.149Z,99.00
2023-05-25T15:01:47.251Z,98.90
2023-05-25T15:04:14.572Z,98.10
2023-05-25T15:06:41.694Z,98.20
2023-05-25T15:09:08.756Z,98.20
2023-05-25T15:11:35.872Z,98.90
2023-05-25T15:14:03.004Z,97.90
2023-05-25T15:16:30.174Z,98.60
2023-05-25T15:18:57.325Z,98.40
2023-05-25T15:21:25.750Z,99.00
2023-05-25T15:23:52.907Z,98.60
2023-05-25T15:26:20.000Z,98.30
2023-05-25T15:28:47.143Z,98.30
2023-05-25T15:31:14.238Z,97.90
2023-05-25T15:33:50.207Z,98.60
2023-05-25T15:36:21.303Z,98.30
2023-05-25T15:38:49.582Z,98.40
2023-05-25T15:41:17.719Z,97.00
2023-05-25T15:43:58.618Z,98.20
2023-05-25T15:46:26.305Z,97.40
2023-05-25T15:48:54.077Z,97.30
2023-05-25T15:51:21.489Z,98.40
2023-05-25T15:53:49.073Z,98.00
2023-05-25T15:56:16.215Z,98.30
2023-05-25T15:58:47.206Z,98.00
2023-05-25T16:01:14.509Z,98.70
2023-05-25T16:03:43.295Z,98.90
2023-05-25T16:06:11.202Z,99.30
2023-05-25T16:08:38.552Z,98.50
2023-05-25T16:11:05.818Z,99.00
2023-05-25T16:13:32.944Z,99.40
2023-05-25T16:16:00.506Z,98.60
2023-05-25T16:18:27.714Z,99.40
2023-05-25T16:20:58.078Z,99.40
2023-05-25T16:23:25.541Z,99.90
2023-05-25T16:25:53.198Z,99.90
2023-05-25T16:28:20.407Z,99.90
2023-05-25T16:30:47.518Z,99.90
2023-05-25T16:33:14.846Z,99.90
2023-05-25T16:35:42.194Z,99.90
2023-05-25T16:38:09.476Z,99.90
2023-05-25T16:40:37.304Z,99.90
2023-05-25T16:43:04.375Z,99.90
2023-05-25T16:45:31.630Z,99.90
2023-05-25T16:47:58.785Z,99.90
2023-05-25T16:50:25.927Z,99.90
2023-05-25T16:52:53.063Z,99.90
2023-05-25T16:55:20.309Z,99.90
2023-05-25T16:57:47.448Z,99.90
2023-05-25T17:00:15.248Z,99.90
2023-05-25T17:02:42.589Z,99.90
2023-05-25T17:05:10.199Z,99.90
2023-05-25T17:07:37.997Z,99.90
2023-05-25T17:10:07.162Z,99.90
2023-05-25T17:12:34.402Z,99.90
2023-05-25T17:15:01.567Z,99.90
2023-05-25T17:17:29.093Z,99.90
2023-05-25T17:19:56.282Z,99.90
2023-05-25T17:22:23.626Z,99.90
2023-05-25T17:24:50.750Z,99.90
2023-05-25T17:27:17.801Z,99.90
2023-05-25T17:29:45.071Z,99.90
2023-05-25T17:32:12.209Z,99.90
2023-05-25T17:34:39.392Z,99.90
2023-05-25T17:37:06.620Z,99.90
2023-05-25T17:39:33.877Z,99.90
2023-05-25T17:42:01.639Z,99.90
2023-05-25T17:44:28.756Z,99.90
2023-05-25T17:46:56.025Z,99.90
2023-05-25T17:49:23.118Z,99.90
2023-05-25T17:51:50.223Z,99.90
2023-05-25T17:54:20.059Z,99.90
2023-05-25T17:56:47.525Z,99.90
2023-05-25T17:59:14.656Z,99.90
2023-05-25T18:01:42.432Z,99.90
2023-05-25T18:04:09.981Z,99.90
2023-05-25T18:06:37.340Z,99.90
2023-05-25T18:09:04.990Z,99.90
2023-05-25T18:11:33.800Z,99.90
2023-05-25T18:14:00.978Z,99.90
2023-05-25T18:16:28.143Z,99.90
2023-05-25T18:18:55.357Z,99.90
2023-05-25T18:21:22.652Z,99.90
2023-05-25T18:23:49.953Z,99.90
2023-05-25T18:26:16.991Z,99.90
2023-05-25T18:28:44.091Z,99.90
2023-05-25T18:31:11.313Z,99.90
2023-05-25T18:33:38.469Z,99.90
2023-05-25T18:36:05.834Z,99.90
2023-05-25T18:38:32.911Z,99.90
2023-05-25T18:40:59.989Z,99.90
2023-05-25T18:43:27.154Z,99.90
2023-05-25T18:45:54.250Z,99.90
2023-05-25T18:48:23.790Z,99.90
2023-05-25T18:50:51.447Z,99.90
2023-05-25T18:53:18.653Z,99.90
2023-05-25T18:55:46.118Z,99.90
2023-05-25T18:58:13.400Z,99.90
2023-05-25T19:00:40.614Z,99.90
2023-05-25T19:03:07.859Z,99.90
2023-05-25T19:05:35.780Z,99.90
2023-05-25T19:08:02.915Z,99.90
2023-05-25T19:10:30.060Z,99.90
2023-05-25T19:13:05.920Z,99.90
2023-05-25T19:15:33.030Z,99.90
2023-05-25T19:18:00.278Z,99.90
2023-05-25T19:20:28.589Z,99.90
2023-05-25T19:22:55.982Z,99.90
2023-05-25T19:25:23.040Z,99.90
2023-05-25T19:27:50.210Z,99.90
2023-05-25T19:30:17.673Z,99.90
2023-05-25T19:32:44.825Z,99.90
2023-05-25T19:35:12.436Z,99.90
2023-05-25T19:37:41.322Z,99.90
2023-05-25T19:40:09.752Z,99.90
2023-05-25T19:42:37.498Z,99.90
2023-05-25T19:45:04.964Z,99.90
2023-05-25T19:47:32.434Z,99.90
2023-05-25T19:49:59.570Z,99.90
2023-05-25T19:52:26.815Z,99.90
2023-05-25T19:54:53.925Z,99.90
2023-05-25T19:57:21.550Z,99.90
2023-05-25T19:59:50.155Z,99.90
2023-05-25T20:02:18.838Z,99.90
2023-05-25T20:04:45.991Z,99.90
2023-05-25T20:07:13.263Z,99.90
2023-05-25T20:09:40.443Z,99.90
2023-05-25T20:12:07.814Z,99.90
2023-05-25T20:14:35.103Z,99.90
2023-05-25T20:17:02.230Z,99.90
2023-05-25T20:19:29.775Z,99.90
2023-05-25T20:21:58.111Z,99.90
2023-05-25T20:24:25.228Z,99.90
2023-05-25T20:26:56.811Z,99.90
2023-05-25T20:29:24.328Z,99.90
2023-05-25T20:31:52.445Z,99.90
2023-05-25T20:34:19.640Z,99.90
2023-05-25T20:36:46.757Z,99.90
2023-05-25T20:39:14.080Z,99.90
2023-05-25T20:41:41.212Z,99.90
2023-05-25T20:44:09.058Z,99.90
2023-05-25T20:46:38.673Z,99.90
2023-05-25T20:49:05.858Z,99.90
2023-05-25T20:51:33.015Z,99.90
2023-05-25T20:54:02.036Z,99.90
2023-05-25T20:56:29.159Z,99.90
2023-05-25T20:58:57.587Z,99.90
2023-05-25T21:01:24.794Z,99.90
2023-05-25T21:03:51.971Z,99.90
2023-05-25T21:06:19.634Z,99.90
2023-05-25T21:08:46.825Z,99.90
2023-05-25T21:11:14.273Z,99.90
2023-05-25T21:13:41.583Z,99.90
2023-05-25T21:16:08.850Z,99.90
2023-05-25T21:18:36.370Z,99.90
2023-05-25T21:21:04.773Z,99.90
2023-05-25T21:23:31.989Z,99.90
2023-05-25T21:25:59.110Z,99.90
2023-05-25T21:28:27.574Z,99.90
2023-05-25T21:30:54.725Z,99.90
2023-05-25T21:33:22.027Z,99.90
2023-05-25T21:35:49.082Z,99.90
2023-05-25T21:38:16.138Z,99.90
2023-05-25T21:40:43.277Z,99.90
2023-05-25T21:43:10.477Z,99.90
2023-05-25T21:45:37.574Z,99.90
2023-05-25T21:48:05.033Z,99.90
2023-05-25T21:50:32.187Z,99.90
2023-05-25T21:52:59.270Z,99.90
2023-05-25T21:55:26.417Z,99.90
2023-05-25T21:57:53.477Z,99.90
2023-05-25T22:00:21.587Z,99.90
2023-05-25T22:02:48.987Z,99.90
2023-05-25T22:05:16.140Z,99.90
2023-05-25T22:07:43.308Z,99.90
2023-05-25T22:10:10.677Z,99.90
2023-05-25T22:12:37.843Z,99.90
2023-05-25T22:15:06.616Z,99.90
2023-05-25T22:17:33.976Z,99.90
2023-05-25T22:20:07.831Z,99.90
2023-05-25T22:22:35.777Z,99.90
2023-05-25T22:25:03.055Z,99.90
2023-05-25T22:27:30.223Z,99.90
2023-05-25T22:29:57.344Z,99.90
2023-05-25T22:32:24.553Z,99.90
2023-05-25T22:34:51.668Z,99.90
2023-05-25T22:37:18.787Z,99.90
2023-05-25T22:39:45.907Z,99.90
2023-05-25T22:42:14.129Z,99.90
2023-05-25T22:44:41.273Z,99.90
2023-05-25T22:47:08.416Z,99.90
2023-05-25T22:49:41.175Z,99.90
2023-05-25T22:52:11.087Z,99.90
2023-05-25T22:54:38.212Z,99.90
2023-05-25T22:57:06.560Z,99.90
2023-05-25T22:59:33.685Z,99.90
2023-05-25T23:02:00.963Z,99.90
2023-05-25T23:04:28.167Z,99.90
2023-05-25T23:06:55.289Z,99.90
2023-05-25T23:09:22.391Z,99.90
2023-05-25T23:11:49.526Z,99.90
2023-05-25T23:14:16.598Z,99.90
2023-05-25T23:16:44.568Z,99.90
2023-05-25T23:19:11.783Z,99.90
2023-05-25T23:21:38.807Z,99.90
2023-05-25T23:24:06.433Z,99.90
2023-05-25T23:26:33.548Z,99.90
2023-05-25T23:29:00.781Z,99.90
2023-05-25T23:31:27.904Z,99.90
2023-05-25T23:33:55.019Z,99.90
2023-05-25T23:36:22.164Z,99.90
2023-05-25T23:38:49.219Z,99.90
2023-05-25T23:41:16.698Z,99.90
2023-05-25T23:43:43.787Z,99.90
2023-05-25T23:46:11.072Z,99.90
2023-05-25T23:48:38.132Z,99.90
2023-05-25T23:51:07.599Z,99.90
2023-05-25T23:53:34.902Z,99.90
2023-05-25T23:56:02.034Z,99.90
2023-05-25T23:58:29.148Z,99.90
